CheckWX is a tool to help pilots better visualize weather data.  It is not intended as a substitute for an official pre-flight weather briefing.

18:00:05 UTC

KMMH METAR
Mammoth Yosemite Airport
Mammoth Lakes, California, USA
Current

25 mins ago

KMMH 171735Z AUTO 00000KT 10SM OVC050 M08/M14 A2978 RMK AO2 T10791145
Observed
Feb-17 @ 17:35 UTC
Visibility
10 SM
Flight Rules
VFR
Cloud Levels
  • Overcast at 5,000' AGL
Temperature
-8°C / 18°F
Dewpoint
-15°C / 5°F
Humidity
58%
Altimeter
29.78" Hg
Pressure
1008.42 hPa
Previous

45 mins ago

KMMH 171715Z AUTO 00000KT 10SM SCT042 SCT048 OVC050 M08/M15 A2978 RMK AO2 T10801146
Observed
Feb-17 @ 17:15 UTC
Visibility
10 SM
Flight Rules
VFR
Cloud Levels
  • Scattered at 4,200' AGL
  • Scattered at 4,800' AGL
  • Overcast at 5,000' AGL
Temperature
-8°C / 18°F
Dewpoint
-15°C / 5°F
Humidity
58%
Altimeter
29.78" Hg
Pressure
1008.42 hPa
Previous

1 hour ago

KMMH 171655Z AUTO 00000KT 10SM SCT044 OVC050 M09/M15 A2979 RMK AO2 T10911146
Observed
Feb-17 @ 16:55 UTC
Visibility
10 SM
Flight Rules
VFR
Cloud Levels
  • Scattered at 4,400' AGL
  • Overcast at 5,000' AGL
Temperature
-9°C / 16°F
Dewpoint
-15°C / 5°F
Humidity
62%
Altimeter
29.79" Hg
Pressure
1008.82 hPa